createdAt,value
2022-11-16T00:00:14.306Z,99.90
2022-11-16T00:03:38.825Z,99.90
2022-11-16T00:07:02.851Z,99.90
2022-11-16T00:10:25.917Z,99.90
2022-11-16T00:13:48.819Z,99.90
2022-11-16T00:17:11.765Z,99.90
2022-11-16T00:20:36.039Z,99.90
2022-11-16T00:23:59.576Z,99.90
2022-11-16T00:27:22.456Z,99.90
2022-11-16T00:30:45.420Z,99.90
2022-11-16T00:34:08.329Z,99.90
2022-11-16T00:37:32.646Z,99.90
2022-11-16T00:40:55.584Z,99.90
2022-11-16T00:44:19.026Z,99.90
2022-11-16T00:47:42.045Z,99.90
2022-11-16T00:51:05.139Z,99.90
2022-11-16T00:54:29.624Z,99.90
2022-11-16T00:57:52.687Z,99.90
2022-11-16T01:01:17.264Z,99.90
2022-11-16T01:04:40.554Z,99.90
2022-11-16T01:08:03.529Z,99.90
2022-11-16T01:11:45.880Z,99.90
2022-11-16T01:15:09.951Z,99.90
2022-11-16T01:18:33.810Z,99.90
2022-11-16T01:21:57.169Z,99.90
2022-11-16T01:25:20.477Z,99.90
2022-11-16T01:28:44.886Z,99.90
2022-11-16T01:32:09.142Z,99.90
2022-11-16T01:35:32.148Z,99.90
2022-11-16T01:38:55.690Z,99.90
2022-11-16T01:42:25.700Z,99.90
2022-11-16T01:45:54.160Z,99.90
2022-11-16T01:49:20.556Z,99.90
2022-11-16T01:52:51.206Z,99.90
2022-11-16T01:56:15.795Z,1.00
2022-11-16T01:59:46.803Z,1.00
2022-11-16T02:03:14.887Z,1.00
2022-11-16T02:06:58.320Z,1.00
2022-11-16T02:10:38.580Z,1.00
2022-11-16T02:14:13.759Z,1.00
2022-11-16T02:17:45.920Z,1.00
2022-11-16T02:21:29.724Z,1.00
2022-11-16T02:25:01.355Z,1.00
2022-11-16T02:28:38.769Z,1.00
2022-11-16T02:32:06.141Z,1.00
2022-11-16T02:35:34.012Z,1.00
2022-11-16T02:39:05.941Z,1.00
2022-11-16T02:42:35.347Z,1.00
2022-11-16T02:46:04.905Z,1.00
2022-11-16T02:49:32.103Z,1.00
2022-11-16T02:52:55.676Z,1.00
2022-11-16T02:56:20.651Z,1.00
2022-11-16T02:59:47.796Z,1.00
2022-11-16T03:03:21.960Z,1.00
2022-11-16T03:06:49.611Z,1.00
2022-11-16T03:10:33.675Z,1.00
2022-11-16T03:14:04.376Z,1.00
2022-11-16T03:17:31.763Z,1.00
2022-11-16T03:21:04.520Z,1.00
2022-11-16T03:24:29.076Z,1.00
2022-11-16T03:27:58.801Z,1.00
2022-11-16T03:31:27.976Z,1.00
2022-11-16T03:34:57.761Z,1.00
2022-11-16T03:38:25.630Z,1.00
2022-11-16T03:41:51.674Z,1.00
2022-11-16T03:45:15.564Z,1.00
2022-11-16T03:48:41.271Z,1.00
2022-11-16T03:52:16.591Z,1.00
2022-11-16T03:55:40.099Z,1.00
2022-11-16T03:59:05.460Z,1.00
2022-11-16T04:02:28.416Z,1.00
2022-11-16T04:06:11.514Z,1.00
2022-11-16T04:09:52.224Z,1.00
2022-11-16T04:13:35.190Z,1.00
2022-11-16T04:17:17.596Z,1.00
2022-11-16T04:20:57.964Z,1.00
2022-11-16T04:24:24.566Z,1.00
2022-11-16T04:28:05.828Z,1.00
2022-11-16T04:31:46.469Z,1.00
2022-11-16T04:35:43.400Z,1.00
2022-11-16T04:39:07.426Z,1.00
2022-11-16T04:42:31.214Z,1.00
2022-11-16T04:46:11.552Z,1.00
2022-11-16T04:49:36.049Z,1.00
2022-11-16T04:53:01.120Z,1.00
2022-11-16T04:56:25.420Z,1.00
2022-11-16T04:59:48.903Z,1.00
2022-11-16T05:03:11.878Z,1.00
2022-11-16T05:06:35.298Z,1.00
2022-11-16T05:09:59.604Z,1.00
2022-11-16T05:13:23.417Z,1.00
2022-11-16T05:16:48.691Z,1.00
2022-11-16T05:20:29.908Z,1.00
2022-11-16T05:24:15.119Z,1.00
2022-11-16T05:27:39.491Z,1.00
2022-11-16T05:31:02.520Z,1.00
2022-11-16T05:34:28.100Z,1.00
2022-11-16T05:37:51.166Z,1.00
2022-11-16T05:41:14.154Z,1.00
2022-11-16T05:44:39.027Z,1.00
2022-11-16T05:48:02.510Z,1.00
2022-11-16T05:51:25.911Z,1.00
2022-11-16T05:54:50.400Z,1.00
2022-11-16T05:58:13.553Z,1.00
2022-11-16T06:01:38.439Z,1.00
2022-11-16T06:05:02.024Z,1.00
2022-11-16T06:08:25.639Z,1.00
2022-11-16T06:11:50.249Z,1.00
2022-11-16T06:15:13.516Z,1.00
2022-11-16T06:18:40.945Z,1.00
2022-11-16T06:22:04.577Z,1.00
2022-11-16T06:25:28.224Z,1.00
2022-11-16T06:28:51.192Z,1.00
2022-11-16T06:32:14.618Z,1.00
2022-11-16T06:35:39.469Z,1.00
2022-11-16T06:39:02.568Z,1.00
2022-11-16T06:42:30.021Z,1.00
2022-11-16T06:45:55.478Z,1.00
2022-11-16T06:49:18.591Z,1.00
2022-11-16T06:52:43.915Z,1.00
2022-11-16T06:56:08.509Z,1.00
2022-11-16T06:59:37.040Z,1.00
2022-11-16T07:03:00.073Z,1.00
2022-11-16T07:06:25.324Z,1.00
2022-11-16T07:09:49.607Z,1.00
2022-11-16T07:13:12.829Z,1.00
2022-11-16T07:16:36.605Z,1.00
2022-11-16T07:20:00.729Z,1.00
2022-11-16T07:23:25.091Z,1.00
2022-11-16T07:26:49.327Z,1.00
2022-11-16T07:30:16.677Z,1.00
2022-11-16T07:33:52.372Z,1.00
2022-11-16T07:37:38.520Z,1.00
2022-11-16T07:41:03.061Z,1.00
2022-11-16T07:44:28.827Z,1.00
2022-11-16T07:48:02.197Z,1.00
2022-11-16T07:51:48.365Z,1.00
2022-11-16T07:55:37.439Z,1.00
2022-11-16T07:59:01.432Z,1.00
2022-11-16T08:02:28.983Z,1.00
2022-11-16T08:06:00.020Z,1.00
2022-11-16T08:09:23.177Z,1.00
2022-11-16T08:12:47.345Z,1.00
2022-11-16T08:16:13.259Z,1.00
2022-11-16T08:19:39.369Z,1.00
2022-11-16T08:23:03.668Z,1.00
2022-11-16T08:26:30.295Z,1.00
2022-11-16T08:29:58.717Z,1.00
2022-11-16T08:33:23.596Z,1.00
2022-11-16T08:36:48.071Z,1.00
2022-11-16T08:40:12.420Z,1.00
2022-11-16T08:43:39.388Z,1.00
2022-11-16T08:47:03.553Z,1.00
2022-11-16T08:51:09.852Z,1.00
2022-11-16T08:54:21.875Z,99.90
2022-11-16T08:57:45.452Z,99.90
2022-11-16T09:01:11.012Z,99.90
2022-11-16T09:04:37.014Z,99.90
2022-11-16T09:08:00.280Z,99.90
2022-11-16T09:11:26.332Z,99.90
2022-11-16T09:14:49.247Z,99.90
2022-11-16T09:18:12.167Z,99.90
2022-11-16T09:21:36.387Z,99.90
2022-11-16T09:24:59.318Z,99.90
2022-11-16T09:28:23.829Z,99.90
2022-11-16T09:31:46.738Z,99.90
2022-11-16T09:35:10.576Z,99.90
2022-11-16T09:38:54.305Z,99.90
2022-11-16T09:42:47.002Z,99.90
2022-11-16T09:46:21.665Z,99.90
2022-11-16T09:49:51.594Z,99.90
2022-11-16T09:53:27.584Z,99.90
2022-11-16T09:56:54.321Z,99.90
2022-11-16T10:00:22.678Z,99.90
2022-11-16T10:03:52.156Z,99.90
2022-11-16T10:07:17.523Z,99.90
2022-11-16T10:10:46.443Z,99.90
2022-11-16T10:14:35.567Z,99.90
2022-11-16T10:18:20.779Z,99.90
2022-11-16T10:21:55.964Z,99.90
2022-11-16T10:25:23.076Z,99.90
2022-11-16T10:29:01.020Z,99.90
2022-11-16T10:32:28.764Z,99.90
2022-11-16T10:35:54.078Z,99.90
2022-11-16T10:39:20.286Z,99.90
2022-11-16T10:42:43.271Z,99.90
2022-11-16T10:46:15.392Z,99.90
2022-11-16T10:49:45.212Z,99.90
2022-11-16T10:53:13.704Z,99.90
2022-11-16T10:56:41.381Z,99.90
2022-11-16T11:00:08.620Z,99.90
2022-11-16T11:03:34.443Z,99.90
2022-11-16T11:07:00.011Z,99.90
2022-11-16T11:10:28.711Z,99.90
2022-11-16T11:14:10.795Z,99.90
2022-11-16T11:17:35.188Z,99.90
2022-11-16T11:21:10.128Z,99.90
2022-11-16T11:24:48.771Z,99.90
2022-11-16T11:28:20.908Z,99.90
2022-11-16T11:31:48.347Z,99.90
2022-11-16T11:35:24.583Z,99.90
2022-11-16T11:38:58.952Z,99.90
2022-11-16T11:42:24.032Z,99.90
2022-11-16T11:45:53.126Z,99.90
2022-11-16T11:49:22.651Z,99.90
2022-11-16T11:52:55.998Z,99.90
2022-11-16T11:56:19.646Z,99.90
2022-11-16T11:59:42.985Z,99.90
2022-11-16T12:03:40.477Z,99.90
2022-11-16T12:07:16.984Z,99.90
2022-11-16T12:10:46.053Z,99.90
2022-11-16T12:14:27.675Z,99.90
2022-11-16T12:17:58.696Z,99.90
2022-11-16T12:21:30.340Z,99.90
2022-11-16T12:25:10.666Z,99.90
2022-11-16T12:28:52.348Z,98.70
2022-11-16T12:32:27.139Z,94.60
2022-11-16T12:35:57.933Z,92.30
2022-11-16T12:39:25.213Z,87.10
2022-11-16T12:42:58.998Z,80.70
2022-11-16T12:46:29.568Z,72.10
2022-11-16T12:50:15.512Z,63.90
2022-11-16T12:53:55.723Z,54.70
2022-11-16T12:57:26.066Z,48.10
2022-11-16T13:01:02.548Z,43.00
2022-11-16T13:04:31.109Z,35.00
2022-11-16T13:07:58.352Z,35.90
2022-11-16T13:11:25.554Z,42.00
2022-11-16T13:14:49.632Z,45.30
2022-11-16T13:18:17.720Z,41.10
2022-11-16T13:21:48.731Z,40.80
2022-11-16T13:25:18.449Z,41.40
2022-11-16T13:28:51.637Z,33.70
2022-11-16T13:32:20.629Z,26.90
2022-11-16T13:35:45.016Z,23.50
2022-11-16T13:39:09.029Z,21.10
2022-11-16T13:42:34.047Z,17.50
2022-11-16T13:46:00.204Z,13.20
2022-11-16T13:49:30.809Z,9.30
2022-11-16T13:56:50.577Z,1.00
2022-11-16T14:00:23.669Z,1.00
2022-11-16T14:03:47.631Z,1.00
2022-11-16T14:07:32.108Z,1.00
2022-11-16T14:11:03.178Z,1.00
2022-11-16T14:15:03.425Z,1.00
2022-11-16T14:18:37.092Z,1.00
2022-11-16T14:22:07.805Z,1.00
2022-11-16T14:25:38.289Z,1.00
2022-11-16T14:29:36.988Z,1.00
2022-11-16T14:33:00.184Z,1.00
2022-11-16T14:36:38.478Z,1.00
2022-11-16T14:40:05.620Z,1.00
2022-11-16T14:43:32.440Z,1.00
2022-11-16T14:46:57.357Z,1.00
2022-11-16T14:50:22.837Z,1.00
2022-11-16T14:53:49.836Z,1.00
2022-11-16T14:57:19.272Z,1.00
2022-11-16T15:00:42.375Z,1.00
2022-11-16T15:04:09.764Z,1.00
2022-11-16T15:07:32.805Z,1.00
2022-11-16T15:10:55.889Z,1.00
2022-11-16T15:14:21.617Z,1.00
2022-11-16T15:17:46.699Z,1.00
2022-11-16T15:21:23.348Z,1.00
2022-11-16T15:24:55.859Z,1.00
2022-11-16T15:28:22.457Z,9.60
2022-11-16T15:31:45.660Z,16.10
2022-11-16T15:35:14.820Z,22.10
2022-11-16T15:38:39.289Z,26.80
2022-11-16T15:42:04.350Z,33.10
2022-11-16T15:45:29.279Z,38.30
2022-11-16T15:48:52.552Z,43.50
2022-11-16T15:52:35.479Z,48.70
2022-11-16T15:56:00.154Z,54.80
2022-11-16T15:59:27.788Z,58.70
2022-11-16T16:02:52.228Z,65.30
2022-11-16T16:06:16.605Z,70.40
2022-11-16T16:09:41.245Z,74.20
2022-11-16T16:13:26.140Z,76.60
2022-11-16T16:16:51.206Z,79.00
2022-11-16T16:20:19.077Z,85.50
2022-11-16T16:23:46.457Z,90.20
2022-11-16T16:27:27.727Z,99.90
2022-11-16T16:30:53.708Z,92.10
2022-11-16T16:34:18.134Z,96.30
2022-11-16T16:37:41.099Z,98.00
2022-11-16T16:41:06.097Z,99.30
2022-11-16T16:44:30.311Z,99.90
2022-11-16T16:47:54.827Z,99.90
2022-11-16T16:51:17.835Z,99.90
2022-11-16T16:54:41.277Z,99.90
2022-11-16T16:58:04.273Z,99.90
2022-11-16T17:01:27.253Z,99.90
2022-11-16T17:04:51.533Z,99.90
2022-11-16T17:08:14.433Z,99.90
2022-11-16T17:11:37.511Z,99.90
2022-11-16T17:15:00.483Z,99.90
2022-11-16T17:18:23.863Z,99.90
2022-11-16T17:21:48.179Z,99.90
2022-11-16T17:25:11.541Z,99.90
2022-11-16T17:28:34.794Z,99.90
2022-11-16T17:31:57.697Z,99.90
2022-11-16T17:35:20.837Z,99.90
2022-11-16T17:38:45.502Z,99.90
2022-11-16T17:42:08.425Z,99.90
2022-11-16T17:45:31.872Z,99.90
2022-11-16T17:48:54.791Z,99.90
2022-11-16T17:52:17.688Z,99.90
2022-11-16T17:55:43.576Z,99.90
2022-11-16T17:59:06.531Z,99.90
2022-11-16T18:02:29.454Z,99.90
2022-11-16T18:05:52.815Z,99.90
2022-11-16T18:09:15.792Z,99.90
2022-11-16T18:12:40.133Z,99.90
2022-11-16T18:16:05.080Z,99.90
2022-11-16T18:19:28.014Z,99.90
2022-11-16T18:22:50.962Z,99.90
2022-11-16T18:26:16.193Z,99.90
2022-11-16T18:29:40.508Z,99.90
2022-11-16T18:33:03.458Z,99.90
2022-11-16T18:36:26.399Z,99.90
2022-11-16T18:39:49.291Z,99.90
2022-11-16T18:43:13.538Z,99.90
2022-11-16T18:46:37.777Z,99.90
2022-11-16T18:50:00.905Z,99.90
2022-11-16T18:53:23.823Z,99.90
2022-11-16T18:56:47.161Z,99.90
2022-11-16T19:00:12.051Z,99.90
2022-11-16T19:03:36.950Z,99.90
2022-11-16T19:07:00.239Z,99.90
2022-11-16T19:10:23.194Z,99.90
2022-11-16T19:13:46.859Z,99.90
2022-11-16T19:17:10.140Z,99.90
2022-11-16T19:20:34.480Z,99.90
2022-11-16T19:23:58.281Z,99.90
2022-11-16T19:27:21.165Z,99.90
2022-11-16T19:30:44.177Z,99.90
2022-11-16T19:34:08.668Z,99.90
2022-11-16T19:37:32.983Z,99.90
2022-11-16T19:40:55.912Z,99.90
2022-11-16T19:44:18.869Z,99.90
2022-11-16T19:47:41.788Z,99.90
2022-11-16T19:51:06.308Z,99.90
2022-11-16T19:54:30.725Z,99.90
2022-11-16T19:57:53.614Z,99.90
2022-11-16T20:01:18.783Z,99.90
2022-11-16T20:04:41.818Z,99.90
2022-11-16T20:08:04.856Z,99.90
2022-11-16T20:11:31.203Z,99.90
2022-11-16T20:14:54.162Z,99.90
2022-11-16T20:18:17.144Z,99.90
2022-11-16T20:21:41.587Z,99.90
2022-11-16T20:25:04.642Z,99.90
2022-11-16T20:28:28.961Z,99.90
2022-11-16T20:31:51.900Z,99.90
2022-11-16T20:35:18.947Z,99.90
2022-11-16T20:38:42.264Z,99.90
2022-11-16T20:42:05.358Z,99.90
2022-11-16T20:45:32.688Z,99.90
2022-11-16T20:48:57.099Z,99.90
2022-11-16T20:52:20.283Z,99.90
2022-11-16T20:55:45.671Z,99.90
2022-11-16T20:59:08.899Z,99.90
2022-11-16T21:02:33.153Z,99.90
2022-11-16T21:05:56.094Z,99.90
2022-11-16T21:09:22.711Z,99.90
2022-11-16T21:13:03.855Z,99.90
2022-11-16T21:16:26.972Z,99.90
2022-11-16T21:20:20.222Z,99.90
2022-11-16T21:23:36.269Z,99.90
2022-11-16T21:26:59.368Z,99.90
2022-11-16T21:30:22.395Z,99.90
2022-11-16T21:33:45.936Z,99.90
2022-11-16T21:37:12.143Z,99.90
2022-11-16T21:40:35.061Z,99.90
2022-11-16T21:43:58.358Z,99.90
2022-11-16T21:47:21.453Z,99.90
2022-11-16T21:50:44.933Z,99.90
2022-11-16T21:54:09.167Z,99.90
2022-11-16T21:57:37.995Z,99.90
2022-11-16T22:01:02.676Z,99.90
2022-11-16T22:04:43.366Z,99.90
2022-11-16T22:08:06.705Z,99.90
2022-11-16T22:11:30.977Z,99.90
2022-11-16T22:14:53.892Z,99.90
2022-11-16T22:18:16.876Z,99.90
2022-11-16T22:21:39.804Z,99.90
2022-11-16T22:25:02.709Z,99.90
2022-11-16T22:28:27.261Z,99.90
2022-11-16T22:31:50.122Z,99.90
2022-11-16T22:35:13.292Z,99.90
2022-11-16T22:38:36.801Z,99.90
2022-11-16T22:41:59.693Z,99.90
2022-11-16T22:45:24.869Z,99.90
2022-11-16T22:48:48.020Z,99.90
2022-11-16T22:52:10.965Z,99.90
2022-11-16T22:55:36.386Z,99.90
2022-11-16T22:59:00.589Z,99.90
2022-11-16T23:02:24.906Z,1.00
2022-11-16T23:05:47.809Z,1.00
2022-11-16T23:09:10.724Z,1.00
2022-11-16T23:12:51.043Z,1.00
2022-11-16T23:16:13.950Z,1.00
2022-11-16T23:19:55.770Z,1.00
2022-11-16T23:23:37.144Z,1.00
2022-11-16T23:27:21.019Z,1.00
2022-11-16T23:30:43.885Z,1.00
2022-11-16T23:34:06.956Z,1.00
2022-11-16T23:37:31.204Z,1.00
2022-11-16T23:40:55.363Z,1.00
2022-11-16T23:44:17.302Z,1.00
2022-11-16T23:47:40.191Z,1.00
2022-11-16T23:51:03.112Z,1.00
2022-11-16T23:54:27.352Z,1.00
2022-11-16T23:57:50.391Z,1.00
